Eye Of The Wind — GWAK — position and weather

sailwx.info

Track history (hours):
 
Tides and Currents Weather Stations Pressure Air Temp Water Temp Dewpoint Dewpoint Depression Visibility Wind Speed Wind Dir Waves Ship Positions

Eye Of The Wind

Last reported at 2018-May-21 03:41 UTC. Time now 2018-May-23 22:24 UTC.
Position N 51°35' E 001°11'.

Length 33 m; draft 2.8 m.

Type: Sailing vessel. MMSI: 233789000.

Date/timePositionNaut miles runAvg speedWind from/ knotsBaromVisibWave heightAir tempDewpointWater temp
2018-May-21 03:41N 51°35' E 001°11'1 5.2
2018-May-21 03:30N 51°36' E 001°12'3 5.7
2018-May-21 03:00N 51°38' E 001°15'3 5.6
2018-May-21 02:30N 51°40' E 001°17'3 6.2
2018-May-21 02:00N 51°42' E 001°21'3 6.7
2018-May-21 01:30N 51°45' E 001°25'3 6.9
2018-May-21 01:00N 51°47' E 001°29'3 6.6
2018-May-21 00:30N 51°48' E 001°34'3 6.8
2018-May-21 00:00N 51°50' E 001°39'3 6.4
2018-May-20 23:30N 51°50' E 001°44'3 5.2
2018-May-20 23:00N 51°50' E 001°48'2 4.8
2018-May-20 22:30N 51°50' E 001°52'3 5.0
2018-May-20 22:00N 51°50' E 001°56'3 5.4
2018-May-20 21:30N 51°52' E 001°60'3 5.3
2018-May-20 21:00N 51°53' E 002°04'2 4.9
2018-May-20 20:30N 51°54' E 002°07'3 5.1
2018-May-20 20:00N 51°55' E 002°11'3 4.8
2018-May-20 19:29N 51°56' E 002°15'1 1.5
2018-May-20 19:00N 51°56' E 002°16'1 1.3
2018-May-20 18:30N 51°57' E 002°17'1 1.3
2018-May-20 18:00N 51°57' E 002°18'1 1.9
2018-May-20 17:25N 51°57' E 002°19'125 4.8
2018-May-19 15:10N 53°19' E 004°57'1 7.6
2018-May-19 15:00N 53°19' E 004°58'4 7.3
2018-May-19 14:30N 53°19' E 005°04'4 8.3
2018-May-19 14:00N 53°18' E 005°11'2 4.5
2018-May-19 13:30N 53°19' E 005°14'2 4.1
2018-May-19 13:00N 53°21' E 005°13'0 0.8
2018-May-19 12:30N 53°22' E 005°13'0 0.0
2018-May-19 12:00N 53°22' E 005°13'0 0.0
2018-May-19 11:30N 53°22' E 005°13'0 0.0
2018-May-19 11:00N 53°22' E 005°13'0 0.0
2018-May-19 10:30N 53°22' E 005°13'0 0.0
2018-May-19 10:00N 53°22' E 005°13'0 0.0
2018-May-19 09:30N 53°22' E 005°13'0 0.0
2018-May-19 09:00N 53°22' E 005°13'0 0.0
2018-May-19 08:30N 53°22' E 005°13'0 0.0
2018-May-19 08:00N 53°22' E 005°13'0 0.0
2018-May-19 07:30N 53°22' E 005°13'1 2.8
2018-May-19 07:00N 53°20' E 005°12'2 4.9
2018-May-19 06:30N 53°19' E 005°16'3 6.5
2018-May-19 06:00N 53°18' E 005°10'3 6.7
2018-May-19 05:30N 53°19' E 005°05'3 5.9
2018-May-19 05:00N 53°19' E 004°60'3 5.4
2018-May-19 04:30N 53°22' E 004°58'4 7.2
2018-May-19 04:00N 53°25' E 005°02'4 7.8
2018-May-19 03:30N 53°26' E 005°07'4 7.8
2018-May-19 03:00N 53°28' E 005°14'4 7.8
2018-May-19 02:30N 53°29' E 005°20'122 3.7
2018-May-17 17:47N 53°52' E 008°43'1 0.1
2018-May-17 09:35N 53°53' E 008°44'0 0.0
2018-May-17 09:30N 53°53' E 008°44'0 0.1
2018-May-17 09:00N 53°53' E 008°44'0 0.0
2018-May-17 08:22N 53°53' E 008°44'0 0.3
2018-May-17 08:00N 53°53' E 008°44'1 0.6
2018-May-17 06:34N 53°52' E 008°43'0 0.0
2018-May-17 06:23N 53°52' E 008°43'0 0.0
2018-May-17 01:26N 53°52' E 008°43'0 0.0
2018-May-16 23:46N 53°52' E 008°43'0 0.0
2018-May-16 22:09N 53°52' E 008°43'0 0.0
2018-May-16 21:40N 53°52' E 008°43'0 0.0
2018-May-16 21:16N 53°52' E 008°43'0 0.1
2018-May-16 20:43N 53°52' E 008°43'0 0.4
2018-May-16 20:30N 53°52' E 008°43'17 4.5
2018-May-16 16:45N 53°60' E 008°17'3 2.7
2018-May-16 15:31N 53°60' E 008°22'0 6.3
2018-May-16 15:28N 53°60' E 008°23'10 5.8
2018-May-16 13:46N 53°57' E 008°39'1 4.5
2018-May-16 13:27N 53°56' E 008°40'3 4.1
2018-May-16 12:45N 53°53' E 008°43'1 3.5
2018-May-16 12:22N 53°52' E 008°44'1 4.1
2018-May-16 12:00N 53°51' E 008°46'2 3.5
2018-May-16 11:30N 53°51' E 008°49'2 3.9
2018-May-16 11:00N 53°51' E 008°52'2 4.2
2018-May-16 10:29N 53°51' E 008°56'2 4.1
2018-May-16 10:01N 53°51' E 008°59'3 5.0
2018-May-16 09:30N 53°52' E 009°03'3 6.6
2018-May-16 09:00N 53°53' E 009°09'4 7.7
2018-May-16 08:30N 53°53' E 009°15'4 8.2
2018-May-16 08:01N 53°50' E 009°21'4 8.8
2018-May-16 07:30N 53°46' E 009°24'4 8.3
2018-May-16 07:00N 53°43' E 009°28'4 8.4
2018-May-16 06:30N 53°39' E 009°31'4 8.4
2018-May-16 06:00N 53°36' E 009°36'4 8.5
2018-May-16 05:30N 53°34' E 009°42'4 8.4
2018-May-16 05:00N 53°33' E 009°49'4 7.5
2018-May-16 04:30N 53°33' E 009°55'2 3.6
2018-May-16 03:56N 53°33' E 009°59'0 0.0
2018-May-16 03:29N 53°33' E 009°59'0 0.0
2018-May-16 02:59N 53°33' E 009°59'0 0.0
2018-May-16 02:29N 53°33' E 009°59'0 0.0
2018-May-16 01:59N 53°33' E 009°59'0 0.0
2018-May-16 01:29N 53°33' E 009°59'0 0.0
2018-May-16 00:59N 53°33' E 009°59'0 0.0
2018-May-16 00:29N 53°33' E 009°59'0 0.0
2018-May-15 23:59N 53°33' E 009°59'0 0.0
2018-May-15 23:29N 53°33' E 009°59'0 0.0
2018-May-15 22:59N 53°33' E 009°59'0 0.0
2018-May-15 22:29N 53°33' E 009°59'0 0.0
2018-May-15 21:59N 53°33' E 009°59'0 0.0
2018-May-15 21:29N 53°33' E 009°59'0 0.0
2018-May-15 20:59N 53°33' E 009°59'0 0.0
2018-May-15 20:26N 53°33' E 009°59'0 0.0
2018-May-15 19:59N 53°33' E 009°59'0 0.0
2018-May-15 19:29N 53°33' E 009°59'0 0.0
2018-May-15 18:59N 53°33' E 009°59'0 0.0
2018-May-15 18:29N 53°33' E 009°59'0 0.0
2018-May-15 17:59N 53°33' E 009°59'0 0.0
2018-May-15 17:23N 53°33' E 009°59'0 0.0
2018-May-15 16:59N 53°33' E 009°59'0 0.0
2018-May-15 16:29N 53°33' E 009°59'0 0.0
2018-May-15 15:59N 53°33' E 009°59'0 0.0
2018-May-15 15:29N 53°33' E 009°59'0 0.0
2018-May-15 14:59N 53°33' E 009°59'0 0.0
2018-May-15 14:29N 53°33' E 009°59'0 0.0
2018-May-15 13:59N 53°33' E 009°59'0 0.0
2018-May-15 13:29N 53°33' E 009°59'0 0.0
2018-May-15 12:56N 53°33' E 009°59'0 0.0
2018-May-15 12:29N 53°33' E 009°59'0 0.0
2018-May-15 11:59N 53°33' E 009°59'0 0.0
2018-May-15 11:29N 53°33' E 009°59'0 0.0
2018-May-15 10:59N 53°33' E 009°59'0 0.0
2018-May-15 10:29N 53°33' E 009°59'0 0.0
2018-May-15 09:59N 53°33' E 009°59'0 0.0
2018-May-15 09:29N 53°33' E 009°59'0 0.0
2018-May-15 08:59N 53°33' E 009°59'0 0.0
2018-May-15 08:26N 53°33' E 009°59'0 0.0
2018-May-15 07:59N 53°33' E 009°59'0 0.0
2018-May-15 07:29N 53°33' E 009°59'0 0.0
2018-May-15 06:59N 53°33' E 009°59'0 0.0
2018-May-15 06:29N 53°33' E 009°59'0 0.0
2018-May-15 05:59N 53°33' E 009°59'0 0.0
2018-May-15 05:29N 53°33' E 009°59'0 0.0
2018-May-15 04:59N 53°33' E 009°59'0 0.0
2018-May-15 04:29N 53°33' E 009°59'0 0.0
2018-May-15 03:59N 53°33' E 009°59'0 0.0
2018-May-15 03:29N 53°33' E 009°59'0 0.0
2018-May-15 02:59N 53°33' E 009°59'0 0.0
2018-May-15 02:29N 53°33' E 009°59'0 0.0
2018-May-15 01:59N 53°33' E 009°59'0 0.0
2018-May-15 01:29N 53°33' E 009°59'0 0.0
2018-May-15 00:56N 53°33' E 009°59'0 0.0
2018-May-15 00:29N 53°33' E 009°59'0 0.0
2018-May-14 23:56N 53°33' E 009°59'0 0.0
2018-May-14 23:29N 53°33' E 009°59'0 0.0
2018-May-14 22:59N 53°33' E 009°59'0 0.0
2018-May-14 22:29N 53°33' E 009°59'0 0.0
2018-May-14 21:56N 53°33' E 009°59'0 0.0
2018-May-14 21:29N 53°33' E 009°59'0 0.0
2018-May-14 20:59N 53°33' E 009°59'0 0.0
2018-May-14 20:29N 53°33' E 009°59'0 0.0
2018-May-14 19:59N 53°33' E 009°59'0 0.0
2018-May-14 19:29N 53°33' E 009°59'0 0.0
2018-May-14 18:59N 53°33' E 009°59'0 0.0
2018-May-14 18:29N 53°33' E 009°59'0 0.0
2018-May-14 17:59N 53°33' E 009°59'0 0.0
2018-May-14 17:26N 53°33' E 009°59'0 0.0
2018-May-14 16:56N 53°33' E 009°59'0 0.0
2018-May-14 16:29N 53°33' E 009°59'0 0.0
2018-May-14 15:59N 53°33' E 009°59'0 0.0
2018-May-14 15:29N 53°33' E 009°59'0 0.0
2018-May-14 14:56N 53°33' E 009°59'0 0.0
2018-May-14 14:29N 53°33' E 009°59'0 0.0
2018-May-14 13:59N 53°33' E 009°59'0 0.0
2018-May-14 13:29N 53°33' E 009°59'0 0.0
2018-May-14 12:59N 53°33' E 009°59'0 0.0
2018-May-14 12:29N 53°33' E 009°59'0 0.0
2018-May-14 11:56N 53°33' E 009°59'0 0.0
2018-May-14 11:26N 53°33' E 009°59'0 0.0
2018-May-14 10:56N 53°33' E 009°59'0 0.0
2018-May-14 10:29N 53°33' E 009°59'0 0.0
2018-May-14 09:59N 53°33' E 009°59'0 0.0
2018-May-14 09:29N 53°33' E 009°59'0 0.0
2018-May-14 08:59N 53°33' E 009°59'0 0.0
2018-May-14 08:29N 53°33' E 009°59'0 0.0
2018-May-14 07:59N 53°33' E 009°59'0 0.0
2018-May-14 07:29N 53°33' E 009°59'0 0.0
2018-May-14 06:59N 53°33' E 009°59'0 0.0
2018-May-14 06:26N 53°33' E 009°59'0 0.0
2018-May-14 05:59N 53°33' E 009°59'0 0.0
2018-May-14 05:29N 53°33' E 009°59'0 0.0
2018-May-14 04:59N 53°33' E 009°59'0 0.0
2018-May-14 04:29N 53°33' E 009°59'0 0.0
2018-May-14 03:59N 53°33' E 009°59'0 0.0
2018-May-14 03:29N 53°33' E 009°59'0 0.0
2018-May-14 02:59N 53°33' E 009°59'0 0.0
2018-May-14 02:29N 53°33' E 009°59'0 0.0
2018-May-14 01:59N 53°33' E 009°59'0 0.0
2018-May-14 01:29N 53°33' E 009°59'0 0.0
2018-May-14 00:59N 53°33' E 009°59'0 0.0
2018-May-14 00:29N 53°33' E 009°59'0 0.0
2018-May-13 23:59N 53°33' E 009°59'0 0.0
2018-May-13 23:29N 53°33' E 009°59'0 0.0
2018-May-13 22:59N 53°33' E 009°59'0 0.0
2018-May-13 22:29N 53°33' E 009°59'0 0.0
2018-May-13 21:59N 53°33' E 009°59'0 0.0
2018-May-13 21:29N 53°33' E 009°59'0 0.0
2018-May-13 20:59N 53°33' E 009°59'0 0.0
2018-May-13 20:29N 53°33' E 009°59'0 0.0
2018-May-13 19:56N 53°33' E 009°59'0 0.1
2018-May-13 19:29N 53°33' E 009°59'0 0.2
2018-May-13 19:00N 53°33' E 009°59'2 3.5
2018-May-13 18:30N 53°32' E 009°56'0 0.4
2018-May-13 17:59N 53°32' E 009°56'1 2.3
2018-May-13 17:30N 53°32' E 009°54'2 3.5
2018-May-13 17:00N 53°33' E 009°51'2 4.3
2018-May-13 16:30N 53°33' E 009°54'3 5.1
2018-May-13 16:00N 53°32' E 009°59'0 0.7
2018-May-13 15:30N 53°33' E 009°58'0 0.6
2018-May-13 15:00N 53°33' E 009°59'0 0.0
2018-May-13 14:30N 53°33' E 009°59'0 0.0
2018-May-13 14:00N 53°33' E 009°59'0 0.0
2018-May-13 13:30N 53°33' E 009°59'1 1.4
2018-May-13 12:58N 53°33' E 009°57'0 0.1
2018-May-13 12:28N 53°33' E 009°57'1 1.4
2018-May-13 12:00N 53°32' E 009°57'2 3.0
2018-May-13 11:30N 53°32' E 009°55'1 2.1
2018-May-13 11:00N 53°32' E 009°53'2 3.2
2018-May-13 10:30N 53°33' E 009°51'0 0.2
2018-May-13 09:59N 53°33' E 009°51'1 1.5
2018-May-13 09:29N 53°33' E 009°52'1 2.5
2018-May-13 09:01N 53°33' E 009°54'2 3.8
2018-May-13 08:30N 53°33' E 009°57'1 2.0
2018-May-13 08:00N 53°33' E 009°59'0 0.0
2018-May-13 07:30N 53°33' E 009°59'0 0.0
2018-May-13 07:00N 53°33' E 009°59'0 0.0
2018-May-13 06:30N 53°33' E 009°59'0 0.0
2018-May-13 06:00N 53°33' E 009°59'0 0.0
2018-May-13 05:30N 53°33' E 009°59'0 0.0
2018-May-13 04:57N 53°33' E 009°59'0 0.0
2018-May-13 04:30N 53°33' E 009°59'0 0.0
2018-May-13 04:00N 53°33' E 009°59'0 0.0
2018-May-13 03:30N 53°33' E 009°59'0 0.0
2018-May-13 03:00N 53°33' E 009°59'0 0.0
2018-May-13 02:30N 53°33' E 009°59'0 0.0
2018-May-13 02:00N 53°33' E 009°59'0 0.0
2018-May-13 01:30N 53°33' E 009°59'0 0.0
2018-May-13 01:00N 53°33' E 009°59'0 0.0
2018-May-13 00:30N 53°33' E 009°59'0 0.0
2018-May-13 00:00N 53°33' E 009°59'0 0.0
2018-May-12 23:27N 53°33' E 009°59'0 0.0
2018-May-12 23:00N 53°33' E 009°59'0 0.0
2018-May-12 22:30N 53°33' E 009°59'0 0.0
2018-May-12 22:00N 53°33' E 009°59'0 0.0
2018-May-12 21:30N 53°33' E 009°59'1 1.1
2018-May-12 21:00N 53°33' E 009°58'2 3.4
2018-May-12 20:30N 53°31' E 009°56'1 2.5
2018-May-12 19:59N 53°32' E 009°56'1 1.1
2018-May-12 19:29N 53°32' E 009°55'2 3.6
2018-May-12 19:00N 53°33' E 009°52'0 0.1
2018-May-12 18:30N 53°33' E 009°53'2 3.3
2018-May-12 18:00N 53°33' E 009°55'2 3.1
2018-May-12 17:30N 53°33' E 009°58'1 1.0
2018-May-12 16:59N 53°33' E 009°59'0 0.0
2018-May-12 16:29N 53°33' E 009°59'0 0.0
2018-May-12 15:59N 53°33' E 009°59'0 0.0
2018-May-12 15:29N 53°33' E 009°59'0 0.0
2018-May-12 14:59N 53°33' E 009°59'0 0.0
2018-May-12 14:29N 53°33' E 009°59'0 0.0
2018-May-12 13:53N 53°33' E 009°59'0 0.0
2018-May-12 13:29N 53°33' E 009°59'0 0.0
2018-May-12 12:59N 53°33' E 009°59'0 0.7
2018-May-12 12:30N 53°33' E 009°58'1 1.6
2018-May-12 12:00N 53°32' E 009°57'2 4.6
2018-May-12 11:30N 53°33' E 009°53'0 0.8
2018-May-12 10:57N 53°33' E 009°52'1 1.5
2018-May-12 10:30N 53°33' E 009°53'1 1.4
2018-May-12 10:00N 53°33' E 009°55'1 1.5
2018-May-12 09:30N 53°33' E 009°56'1 1.9
2018-May-12 09:00N 53°33' E 009°57'1 1.4
2018-May-12 08:30N 53°33' E 009°59'0 0.2
2018-May-12 07:58N 53°33' E 009°59'0 0.0
2018-May-12 07:28N 53°33' E 009°59'0 0.0
2018-May-12 06:58N 53°33' E 009°59'0 0.0
2018-May-12 06:28N 53°33' E 009°59'0 0.0
2018-May-12 06:00N 53°33' E 009°59'0 0.0
2018-May-12 05:31N 53°33' E 009°59'0 0.0
2018-May-12 05:00N 53°33' E 009°59'0 0.0
2018-May-12 04:30N 53°33' E 009°59'0 0.0
2018-May-12 04:00N 53°33' E 009°59'0 0.0
2018-May-12 03:30N 53°33' E 009°59'0 0.1
2018-May-12 03:00N 53°33' E 009°59'0 0.1
2018-May-12 02:30N 53°33' E 009°59'0 0.0
2018-May-12 02:00N 53°33' E 009°59'0 0.0
2018-May-12 01:30N 53°33' E 009°59'0 0.0
2018-May-12 01:00N 53°33' E 009°59'0 0.0
2018-May-12 00:30N 53°33' E 009°59'0 0.0
2018-May-12 00:00N 53°33' E 009°59'0 0.0
2018-May-11 23:31N 53°33' E 009°59'0 0.0
2018-May-11 23:00N 53°33' E 009°59'0 0.0
2018-May-11 22:30N 53°33' E 009°59'0 0.0
2018-May-11 22:00N 53°33' E 009°59'0 0.0
2018-May-11 21:30N 53°33' E 009°59'0 0.1
2018-May-11 21:00N 53°33' E 009°59'2 3.5
2018-May-11 20:30N 53°33' E 009°56'0 0.1
2018-May-11 20:00N 53°32' E 009°56'1 1.1
2018-May-11 19:31N 53°32' E 009°55'1 2.4
2018-May-11 19:00N 53°32' E 009°53'1 2.2
2018-May-11 18:30N 53°33' E 009°51'2 3.0
2018-May-11 18:00N 53°33' E 009°49'0 0.7
2018-May-11 17:30N 53°33' E 009°48'2 4.7
2018-May-11 17:00N 53°33' E 009°52'2 4.6
2018-May-11 16:30N 53°33' E 009°56'2 3.2
2018-May-11 16:01N 53°33' E 009°59'0 0.0
2018-May-11 15:28N 53°33' E 009°59'0 0.0
2018-May-11 15:01N 53°33' E 009°59'0 0.0
2018-May-11 14:28N 53°33' E 009°59'0 0.0
2018-May-11 14:00N 53°33' E 009°59'0 0.0
2018-May-11 13:28N 53°33' E 009°59'0 0.0
2018-May-11 13:00N 53°33' E 009°59'0 0.0
2018-May-11 12:31N 53°33' E 009°59'0 0.0
2018-May-11 12:00N 53°33' E 009°59'0 0.3
2018-May-11 11:27N 53°32' E 009°59'1 2.5
2018-May-11 11:00N 53°32' E 009°57'2 3.6
2018-May-11 10:31N 53°32' E 009°54'1 1.9
2018-May-11 10:00N 53°32' E 009°52'1 2.4
2018-May-11 09:30N 53°33' E 009°50'2 4.3
2018-May-11 09:00N 53°33' E 009°54'2 4.6
2018-May-11 08:31N 53°33' E 009°58'1 1.0
2018-May-11 08:00N 53°33' E 009°59'0 0.0
2018-May-11 07:27N 53°33' E 009°59'0 0.0
2018-May-11 07:00N 53°33' E 009°59'0 0.0
2018-May-11 06:30N 53°33' E 009°59'0 0.0
2018-May-11 06:00N 53°33' E 009°59'0 0.0
2018-May-11 05:30N 53°33' E 009°59'0 0.0
2018-May-11 05:00N 53°33' E 009°59'0 0.0
2018-May-11 04:30N 53°33' E 009°59'0 0.0
2018-May-11 04:00N 53°33' E 009°59'  
Track history (hours):
 
Tides and Currents Weather Stations Pressure Air Temp Water Temp Dewpoint Dewpoint Depression Visibility Wind Speed Wind Dir Waves Ship Positions

Eye Of The Wind

Last reported at 2018-May-21 03:41 UTC. Time now 2018-May-23 22:24 UTC.
Position N 51°35' E 001°11'.

Length 33 m; draft 2.8 m.

Type: Sailing vessel. MMSI: 233789000.

Date/timePositionNaut miles runAvg speedWind from/ knotsBaromVisibWave heightAir tempDewpointWater temp
2018-May-21 03:41N 51°35' E 001°11'1 5.2
2018-May-21 03:30N 51°36' E 001°12'3 5.7
2018-May-21 03:00N 51°38' E 001°15'3 5.6
2018-May-21 02:30N 51°40' E 001°17'3 6.2
2018-May-21 02:00N 51°42' E 001°21'3 6.7
2018-May-21 01:30N 51°45' E 001°25'3 6.9
2018-May-21 01:00N 51°47' E 001°29'3 6.6
2018-May-21 00:30N 51°48' E 001°34'3 6.8
2018-May-21 00:00N 51°50' E 001°39'3 6.4
2018-May-20 23:30N 51°50' E 001°44'3 5.2
2018-May-20 23:00N 51°50' E 001°48'2 4.8
2018-May-20 22:30N 51°50' E 001°52'3 5.0
2018-May-20 22:00N 51°50' E 001°56'3 5.4
2018-May-20 21:30N 51°52' E 001°60'3 5.3
2018-May-20 21:00N 51°53' E 002°04'2 4.9
2018-May-20 20:30N 51°54' E 002°07'3 5.1
2018-May-20 20:00N 51°55' E 002°11'3 4.8
2018-May-20 19:29N 51°56' E 002°15'1 1.5
2018-May-20 19:00N 51°56' E 002°16'1 1.3
2018-May-20 18:30N 51°57' E 002°17'1 1.3
2018-May-20 18:00N 51°57' E 002°18'1 1.9
2018-May-20 17:25N 51°57' E 002°19'125 4.8
2018-May-19 15:10N 53°19' E 004°57'1 7.6
2018-May-19 15:00N 53°19' E 004°58'4 7.3
2018-May-19 14:30N 53°19' E 005°04'4 8.3
2018-May-19 14:00N 53°18' E 005°11'2 4.5
2018-May-19 13:30N 53°19' E 005°14'2 4.1
2018-May-19 13:00N 53°21' E 005°13'0 0.8
2018-May-19 12:30N 53°22' E 005°13'0 0.0
2018-May-19 12:00N 53°22' E 005°13'0 0.0
2018-May-19 11:30N 53°22' E 005°13'0 0.0
2018-May-19 11:00N 53°22' E 005°13'0 0.0
2018-May-19 10:30N 53°22' E 005°13'0 0.0
2018-May-19 10:00N 53°22' E 005°13'0 0.0
2018-May-19 09:30N 53°22' E 005°13'0 0.0
2018-May-19 09:00N 53°22' E 005°13'0 0.0
2018-May-19 08:30N 53°22' E 005°13'0 0.0
2018-May-19 08:00N 53°22' E 005°13'0 0.0
2018-May-19 07:30N 53°22' E 005°13'1 2.8
2018-May-19 07:00N 53°20' E 005°12'2 4.9
2018-May-19 06:30N 53°19' E 005°16'3 6.5
2018-May-19 06:00N 53°18' E 005°10'3 6.7
2018-May-19 05:30N 53°19' E 005°05'3 5.9
2018-May-19 05:00N 53°19' E 004°60'3 5.4
2018-May-19 04:30N 53°22' E 004°58'4 7.2
2018-May-19 04:00N 53°25' E 005°02'4 7.8
2018-May-19 03:30N 53°26' E 005°07'4 7.8
2018-May-19 03:00N 53°28' E 005°14'4 7.8
2018-May-19 02:30N 53°29' E 005°20'122 3.7
2018-May-17 17:47N 53°52' E 008°43'1 0.1
2018-May-17 09:35N 53°53' E 008°44'0 0.0
2018-May-17 09:30N 53°53' E 008°44'0 0.1
2018-May-17 09:00N 53°53' E 008°44'0 0.0
2018-May-17 08:22N 53°53' E 008°44'0 0.3
2018-May-17 08:00N 53°53' E 008°44'1 0.6
2018-May-17 06:34N 53°52' E 008°43'0 0.0
2018-May-17 06:23N 53°52' E 008°43'0 0.0
2018-May-17 01:26N 53°52' E 008°43'0 0.0
2018-May-16 23:46N 53°52' E 008°43'0 0.0
2018-May-16 22:09N 53°52' E 008°43'0 0.0
2018-May-16 21:40N 53°52' E 008°43'0 0.0
2018-May-16 21:16N 53°52' E 008°43'0 0.1
2018-May-16 20:43N 53°52' E 008°43'0 0.4
2018-May-16 20:30N 53°52' E 008°43'17 4.5
2018-May-16 16:45N 53°60' E 008°17'3 2.7
2018-May-16 15:31N 53°60' E 008°22'0 6.3
2018-May-16 15:28N 53°60' E 008°23'10 5.8
2018-May-16 13:46N 53°57' E 008°39'1 4.5
2018-May-16 13:27N 53°56' E 008°40'3 4.1
2018-May-16 12:45N 53°53' E 008°43'1 3.5
2018-May-16 12:22N 53°52' E 008°44'1 4.1
2018-May-16 12:00N 53°51' E 008°46'2 3.5
2018-May-16 11:30N 53°51' E 008°49'2 3.9
2018-May-16 11:00N 53°51' E 008°52'2 4.2
2018-May-16 10:29N 53°51' E 008°56'2 4.1
2018-May-16 10:01N 53°51' E 008°59'3 5.0
2018-May-16 09:30N 53°52' E 009°03'3 6.6
2018-May-16 09:00N 53°53' E 009°09'4 7.7
2018-May-16 08:30N 53°53' E 009°15'4 8.2
2018-May-16 08:01N 53°50' E 009°21'4 8.8
2018-May-16 07:30N 53°46' E 009°24'4 8.3
2018-May-16 07:00N 53°43' E 009°28'4 8.4
2018-May-16 06:30N 53°39' E 009°31'4 8.4
2018-May-16 06:00N 53°36' E 009°36'4 8.5
2018-May-16 05:30N 53°34' E 009°42'4 8.4
2018-May-16 05:00N 53°33' E 009°49'4 7.5
2018-May-16 04:30N 53°33' E 009°55'2 3.6
2018-May-16 03:56N 53°33' E 009°59'0 0.0
2018-May-16 03:29N 53°33' E 009°59'0 0.0
2018-May-16 02:59N 53°33' E 009°59'0 0.0
2018-May-16 02:29N 53°33' E 009°59'0 0.0
2018-May-16 01:59N 53°33' E 009°59'0 0.0
2018-May-16 01:29N 53°33' E 009°59'0 0.0
2018-May-16 00:59N 53°33' E 009°59'0 0.0
2018-May-16 00:29N 53°33' E 009°59'0 0.0
2018-May-15 23:59N 53°33' E 009°59'0 0.0
2018-May-15 23:29N 53°33' E 009°59'0 0.0
2018-May-15 22:59N 53°33' E 009°59'0 0.0
2018-May-15 22:29N 53°33' E 009°59'0 0.0
2018-May-15 21:59N 53°33' E 009°59'0 0.0
2018-May-15 21:29N 53°33' E 009°59'0 0.0
2018-May-15 20:59N 53°33' E 009°59'0 0.0
2018-May-15 20:26N 53°33' E 009°59'0 0.0
2018-May-15 19:59N 53°33' E 009°59'0 0.0
2018-May-15 19:29N 53°33' E 009°59'0 0.0
2018-May-15 18:59N 53°33' E 009°59'0 0.0
2018-May-15 18:29N 53°33' E 009°59'0 0.0
2018-May-15 17:59N 53°33' E 009°59'0 0.0
2018-May-15 17:23N 53°33' E 009°59'0 0.0
2018-May-15 16:59N 53°33' E 009°59'0 0.0
2018-May-15 16:29N 53°33' E 009°59'0 0.0
2018-May-15 15:59N 53°33' E 009°59'0 0.0
2018-May-15 15:29N 53°33' E 009°59'0 0.0
2018-May-15 14:59N 53°33' E 009°59'0 0.0
2018-May-15 14:29N 53°33' E 009°59'0 0.0
2018-May-15 13:59N 53°33' E 009°59'0 0.0
2018-May-15 13:29N 53°33' E 009°59'0 0.0
2018-May-15 12:56N 53°33' E 009°59'0 0.0
2018-May-15 12:29N 53°33' E 009°59'0 0.0
2018-May-15 11:59N 53°33' E 009°59'0 0.0
2018-May-15 11:29N 53°33' E 009°59'0 0.0
2018-May-15 10:59N 53°33' E 009°59'0 0.0
2018-May-15 10:29N 53°33' E 009°59'0 0.0
2018-May-15 09:59N 53°33' E 009°59'0 0.0
2018-May-15 09:29N 53°33' E 009°59'0 0.0
2018-May-15 08:59N 53°33' E 009°59'0 0.0
2018-May-15 08:26N 53°33' E 009°59'0 0.0
2018-May-15 07:59N 53°33' E 009°59'0 0.0
2018-May-15 07:29N 53°33' E 009°59'0 0.0
2018-May-15 06:59N 53°33' E 009°59'0 0.0
2018-May-15 06:29N 53°33' E 009°59'0 0.0
2018-May-15 05:59N 53°33' E 009°59'0 0.0
2018-May-15 05:29N 53°33' E 009°59'0 0.0
2018-May-15 04:59N 53°33' E 009°59'0 0.0
2018-May-15 04:29N 53°33' E 009°59'0 0.0
2018-May-15 03:59N 53°33' E 009°59'0 0.0
2018-May-15 03:29N 53°33' E 009°59'0 0.0
2018-May-15 02:59N 53°33' E 009°59'0 0.0
2018-May-15 02:29N 53°33' E 009°59'0 0.0
2018-May-15 01:59N 53°33' E 009°59'0 0.0
2018-May-15 01:29N 53°33' E 009°59'0 0.0
2018-May-15 00:56N 53°33' E 009°59'0 0.0
2018-May-15 00:29N 53°33' E 009°59'0 0.0
2018-May-14 23:56N 53°33' E 009°59'0 0.0
2018-May-14 23:29N 53°33' E 009°59'0 0.0
2018-May-14 22:59N 53°33' E 009°59'0 0.0
2018-May-14 22:29N 53°33' E 009°59'0 0.0
2018-May-14 21:56N 53°33' E 009°59'0 0.0
2018-May-14 21:29N 53°33' E 009°59'0 0.0
2018-May-14 20:59N 53°33' E 009°59'0 0.0
2018-May-14 20:29N 53°33' E 009°59'0 0.0
2018-May-14 19:59N 53°33' E 009°59'0 0.0
2018-May-14 19:29N 53°33' E 009°59'0 0.0
2018-May-14 18:59N 53°33' E 009°59'0 0.0
2018-May-14 18:29N 53°33' E 009°59'0 0.0
2018-May-14 17:59N 53°33' E 009°59'0 0.0
2018-May-14 17:26N 53°33' E 009°59'0 0.0
2018-May-14 16:56N 53°33' E 009°59'0 0.0
2018-May-14 16:29N 53°33' E 009°59'0 0.0
2018-May-14 15:59N 53°33' E 009°59'0 0.0
2018-May-14 15:29N 53°33' E 009°59'0 0.0
2018-May-14 14:56N 53°33' E 009°59'0 0.0
2018-May-14 14:29N 53°33' E 009°59'0 0.0
2018-May-14 13:59N 53°33' E 009°59'0 0.0
2018-May-14 13:29N 53°33' E 009°59'0 0.0
2018-May-14 12:59N 53°33' E 009°59'0 0.0
2018-May-14 12:29N 53°33' E 009°59'0 0.0
2018-May-14 11:56N 53°33' E 009°59'0 0.0
2018-May-14 11:26N 53°33' E 009°59'0 0.0
2018-May-14 10:56N 53°33' E 009°59'0 0.0
2018-May-14 10:29N 53°33' E 009°59'0 0.0
2018-May-14 09:59N 53°33' E 009°59'0 0.0
2018-May-14 09:29N 53°33' E 009°59'0 0.0
2018-May-14 08:59N 53°33' E 009°59'0 0.0
2018-May-14 08:29N 53°33' E 009°59'0 0.0
2018-May-14 07:59N 53°33' E 009°59'0 0.0
2018-May-14 07:29N 53°33' E 009°59'0 0.0
2018-May-14 06:59N 53°33' E 009°59'0 0.0
2018-May-14 06:26N 53°33' E 009°59'0 0.0
2018-May-14 05:59N 53°33' E 009°59'0 0.0
2018-May-14 05:29N 53°33' E 009°59'0 0.0
2018-May-14 04:59N 53°33' E 009°59'0 0.0
2018-May-14 04:29N 53°33' E 009°59'0 0.0
2018-May-14 03:59N 53°33' E 009°59'0 0.0
2018-May-14 03:29N 53°33' E 009°59'0 0.0
2018-May-14 02:59N 53°33' E 009°59'0 0.0
2018-May-14 02:29N 53°33' E 009°59'0 0.0
2018-May-14 01:59N 53°33' E 009°59'0 0.0
2018-May-14 01:29N 53°33' E 009°59'0 0.0
2018-May-14 00:59N 53°33' E 009°59'0 0.0
2018-May-14 00:29N 53°33' E 009°59'0 0.0
2018-May-13 23:59N 53°33' E 009°59'0 0.0
2018-May-13 23:29N 53°33' E 009°59'0 0.0
2018-May-13 22:59N 53°33' E 009°59'0 0.0
2018-May-13 22:29N 53°33' E 009°59'0 0.0
2018-May-13 21:59N 53°33' E 009°59'0 0.0
2018-May-13 21:29N 53°33' E 009°59'0 0.0
2018-May-13 20:59N 53°33' E 009°59'0 0.0
2018-May-13 20:29N 53°33' E 009°59'0 0.0
2018-May-13 19:56N 53°33' E 009°59'0 0.1
2018-May-13 19:29N 53°33' E 009°59'0 0.2
2018-May-13 19:00N 53°33' E 009°59'2 3.5
2018-May-13 18:30N 53°32' E 009°56'0 0.4
2018-May-13 17:59N 53°32' E 009°56'1 2.3
2018-May-13 17:30N 53°32' E 009°54'2 3.5
2018-May-13 17:00N 53°33' E 009°51'2 4.3
2018-May-13 16:30N 53°33' E 009°54'3 5.1
2018-May-13 16:00N 53°32' E 009°59'0 0.7
2018-May-13 15:30N 53°33' E 009°58'0 0.6
2018-May-13 15:00N 53°33' E 009°59'0 0.0
2018-May-13 14:30N 53°33' E 009°59'0 0.0
2018-May-13 14:00N 53°33' E 009°59'0 0.0
2018-May-13 13:30N 53°33' E 009°59'1 1.4
2018-May-13 12:58N 53°33' E 009°57'0 0.1
2018-May-13 12:28N 53°33' E 009°57'1 1.4
2018-May-13 12:00N 53°32' E 009°57'2 3.0
2018-May-13 11:30N 53°32' E 009°55'1 2.1
2018-May-13 11:00N 53°32' E 009°53'2 3.2
2018-May-13 10:30N 53°33' E 009°51'0 0.2
2018-May-13 09:59N 53°33' E 009°51'1 1.5
2018-May-13 09:29N 53°33' E 009°52'1 2.5
2018-May-13 09:01N 53°33' E 009°54'2 3.8
2018-May-13 08:30N 53°33' E 009°57'1 2.0
2018-May-13 08:00N 53°33' E 009°59'0 0.0
2018-May-13 07:30N 53°33' E 009°59'0 0.0
2018-May-13 07:00N 53°33' E 009°59'0 0.0
2018-May-13 06:30N 53°33' E 009°59'0 0.0
2018-May-13 06:00N 53°33' E 009°59'0 0.0
2018-May-13 05:30N 53°33' E 009°59'0 0.0
2018-May-13 04:57N 53°33' E 009°59'0 0.0
2018-May-13 04:30N 53°33' E 009°59'0 0.0
2018-May-13 04:00N 53°33' E 009°59'0 0.0
2018-May-13 03:30N 53°33' E 009°59'0 0.0
2018-May-13 03:00N 53°33' E 009°59'0 0.0
2018-May-13 02:30N 53°33' E 009°59'0 0.0
2018-May-13 02:00N 53°33' E 009°59'0 0.0
2018-May-13 01:30N 53°33' E 009°59'0 0.0
2018-May-13 01:00N 53°33' E 009°59'0 0.0
2018-May-13 00:30N 53°33' E 009°59'0 0.0
2018-May-13 00:00N 53°33' E 009°59'0 0.0
2018-May-12 23:27N 53°33' E 009°59'0 0.0
2018-May-12 23:00N 53°33' E 009°59'0 0.0
2018-May-12 22:30N 53°33' E 009°59'0 0.0
2018-May-12 22:00N 53°33' E 009°59'0 0.0
2018-May-12 21:30N 53°33' E 009°59'1 1.1
2018-May-12 21:00N 53°33' E 009°58'2 3.4
2018-May-12 20:30N 53°31' E 009°56'1 2.5
2018-May-12 19:59N 53°32' E 009°56'1 1.1
2018-May-12 19:29N 53°32' E 009°55'2 3.6
2018-May-12 19:00N 53°33' E 009°52'0 0.1
2018-May-12 18:30N 53°33' E 009°53'2 3.3
2018-May-12 18:00N 53°33' E 009°55'2 3.1
2018-May-12 17:30N 53°33' E 009°58'1 1.0
2018-May-12 16:59N 53°33' E 009°59'0 0.0
2018-May-12 16:29N 53°33' E 009°59'0 0.0
2018-May-12 15:59N 53°33' E 009°59'0 0.0
2018-May-12 15:29N 53°33' E 009°59'0 0.0
2018-May-12 14:59N 53°33' E 009°59'0 0.0
2018-May-12 14:29N 53°33' E 009°59'0 0.0
2018-May-12 13:53N 53°33' E 009°59'0 0.0
2018-May-12 13:29N 53°33' E 009°59'0 0.0
2018-May-12 12:59N 53°33' E 009°59'0 0.7
2018-May-12 12:30N 53°33' E 009°58'1 1.6
2018-May-12 12:00N 53°32' E 009°57'2 4.6
2018-May-12 11:30N 53°33' E 009°53'0 0.8
2018-May-12 10:57N 53°33' E 009°52'1 1.5
2018-May-12 10:30N 53°33' E 009°53'1 1.4
2018-May-12 10:00N 53°33' E 009°55'1 1.5
2018-May-12 09:30N 53°33' E 009°56'1 1.9
2018-May-12 09:00N 53°33' E 009°57'1 1.4
2018-May-12 08:30N 53°33' E 009°59'0 0.2
2018-May-12 07:58N 53°33' E 009°59'0 0.0
2018-May-12 07:28N 53°33' E 009°59'0 0.0
2018-May-12 06:58N 53°33' E 009°59'0 0.0
2018-May-12 06:28N 53°33' E 009°59'0 0.0
2018-May-12 06:00N 53°33' E 009°59'0 0.0
2018-May-12 05:31N 53°33' E 009°59'0 0.0
2018-May-12 05:00N 53°33' E 009°59'0 0.0
2018-May-12 04:30N 53°33' E 009°59'0 0.0
2018-May-12 04:00N 53°33' E 009°59'0 0.0
2018-May-12 03:30N 53°33' E 009°59'0 0.1
2018-May-12 03:00N 53°33' E 009°59'0 0.1
2018-May-12 02:30N 53°33' E 009°59'0 0.0
2018-May-12 02:00N 53°33' E 009°59'0 0.0
2018-May-12 01:30N 53°33' E 009°59'0 0.0
2018-May-12 01:00N 53°33' E 009°59'0 0.0
2018-May-12 00:30N 53°33' E 009°59'0 0.0
2018-May-12 00:00N 53°33' E 009°59'0 0.0
2018-May-11 23:31N 53°33' E 009°59'0 0.0
2018-May-11 23:00N 53°33' E 009°59'0 0.0
2018-May-11 22:30N 53°33' E 009°59'0 0.0
2018-May-11 22:00N 53°33' E 009°59'0 0.0
2018-May-11 21:30N 53°33' E 009°59'0 0.1
2018-May-11 21:00N 53°33' E 009°59'2 3.5
2018-May-11 20:30N 53°33' E 009°56'0 0.1
2018-May-11 20:00N 53°32' E 009°56'1 1.1
2018-May-11 19:31N 53°32' E 009°55'1 2.4
2018-May-11 19:00N 53°32' E 009°53'1 2.2
2018-May-11 18:30N 53°33' E 009°51'2 3.0
2018-May-11 18:00N 53°33' E 009°49'0 0.7
2018-May-11 17:30N 53°33' E 009°48'2 4.7
2018-May-11 17:00N 53°33' E 009°52'2 4.6
2018-May-11 16:30N 53°33' E 009°56'2 3.2
2018-May-11 16:01N 53°33' E 009°59'0 0.0
2018-May-11 15:28N 53°33' E 009°59'0 0.0
2018-May-11 15:01N 53°33' E 009°59'0 0.0
2018-May-11 14:28N 53°33' E 009°59'0 0.0
2018-May-11 14:00N 53°33' E 009°59'0 0.0
2018-May-11 13:28N 53°33' E 009°59'0 0.0
2018-May-11 13:00N 53°33' E 009°59'0 0.0
2018-May-11 12:31N 53°33' E 009°59'0 0.0
2018-May-11 12:00N 53°33' E 009°59'0 0.3
2018-May-11 11:27N 53°32' E 009°59'1 2.5
2018-May-11 11:00N 53°32' E 009°57'2 3.6
2018-May-11 10:31N 53°32' E 009°54'1 1.9
2018-May-11 10:00N 53°32' E 009°52'1 2.4
2018-May-11 09:30N 53°33' E 009°50'2 4.3
2018-May-11 09:00N 53°33' E 009°54'2 4.6
2018-May-11 08:31N 53°33' E 009°58'1 1.0
2018-May-11 08:00N 53°33' E 009°59'0 0.0
2018-May-11 07:27N 53°33' E 009°59'0 0.0
2018-May-11 07:00N 53°33' E 009°59'0 0.0
2018-May-11 06:30N 53°33' E 009°59'0 0.0
2018-May-11 06:00N 53°33' E 009°59'0 0.0
2018-May-11 05:30N 53°33' E 009°59'0 0.0
2018-May-11 05:00N 53°33' E 009°59'0 0.0
2018-May-11 04:30N 53°33' E 009°59'0 0.0
2018-May-11 04:00N 53°33' E 009°59'  

Dump ship's entire track history